createdAt,value
2019-02-20T00:00:16.687Z,0.00
2019-02-20T00:01:16.673Z,0.00
2019-02-20T00:02:16.687Z,0.00
2019-02-20T00:03:16.655Z,0.00
2019-02-20T00:04:16.647Z,0.00
2019-02-20T00:05:16.629Z,0.00
2019-02-20T00:06:16.623Z,0.00
2019-02-20T00:07:16.630Z,0.00
2019-02-20T00:08:16.595Z,0.00
2019-02-20T00:09:16.584Z,0.00
2019-02-20T00:10:16.573Z,0.00
2019-02-20T00:11:16.562Z,0.00
2019-02-20T00:12:16.550Z,0.00
2019-02-20T00:13:16.559Z,0.00
2019-02-20T00:14:16.528Z,0.00
2019-02-20T00:15:16.521Z,0.00
2019-02-20T00:16:16.507Z,0.00
2019-02-20T00:17:16.493Z,0.00
2019-02-20T00:18:16.502Z,0.00
2019-02-20T00:19:16.473Z,0.00
2019-02-20T00:20:16.459Z,0.00
2019-02-20T00:21:16.449Z,0.00
2019-02-20T00:22:16.437Z,0.00
2019-02-20T00:23:16.444Z,0.00
2019-02-20T00:24:16.412Z,0.00
2019-02-20T00:25:16.402Z,0.00
2019-02-20T00:26:16.390Z,0.00
2019-02-20T00:27:16.378Z,0.00
2019-02-20T00:28:16.387Z,0.00
2019-02-20T00:29:16.358Z,0.00
2019-02-20T00:30:16.348Z,0.00
2019-02-20T00:31:16.338Z,0.00
2019-02-20T00:32:16.322Z,0.00
2019-02-20T00:33:16.333Z,0.00
2019-02-20T00:34:16.300Z,0.00
2019-02-20T00:35:16.290Z,0.00
2019-02-20T00:36:16.275Z,0.00
2019-02-20T00:37:16.266Z,0.00
2019-02-20T00:38:16.260Z,0.00
2019-02-20T00:39:16.297Z,0.00
2019-02-20T00:40:16.236Z,0.00
2019-02-20T00:41:16.218Z,0.00
2019-02-20T00:42:16.209Z,0.00
2019-02-20T00:43:16.217Z,0.00
2019-02-20T00:44:16.188Z,0.00
2019-02-20T00:45:16.173Z,0.00
2019-02-20T00:46:16.166Z,0.00
2019-02-20T00:47:16.150Z,0.00
2019-02-20T00:48:16.161Z,0.00
2019-02-20T00:49:16.132Z,0.00
2019-02-20T00:50:16.128Z,0.00
2019-02-20T00:51:16.103Z,0.00
2019-02-20T00:52:16.105Z,0.00
2019-02-20T00:53:16.082Z,0.00
2019-02-20T00:54:16.091Z,0.00
2019-02-20T00:55:16.062Z,0.00
2019-02-20T00:56:16.046Z,0.00
2019-02-20T00:57:16.036Z,0.00
2019-02-20T00:58:16.024Z,0.00
2019-02-20T00:59:16.918Z,0.00
2019-02-20T01:00:16.003Z,0.00
2019-02-20T01:01:15.988Z,0.00
2019-02-20T01:02:15.977Z,0.00
2019-02-20T01:03:15.971Z,0.00
2019-02-20T01:04:15.973Z,0.00
2019-02-20T01:05:15.946Z,0.00
2019-02-20T01:06:15.933Z,0.00
2019-02-20T01:07:15.919Z,0.00
2019-02-20T01:08:15.908Z,0.00
2019-02-20T01:09:15.917Z,0.00
2019-02-20T01:10:15.890Z,0.00
2019-02-20T01:11:15.874Z,0.00
2019-02-20T01:12:15.862Z,0.00
2019-02-20T01:13:15.852Z,0.00
2019-02-20T01:14:15.862Z,0.00
2019-02-20T01:15:15.830Z,0.00
2019-02-20T01:16:15.821Z,0.00
2019-02-20T01:17:15.806Z,0.00
2019-02-20T01:18:15.798Z,0.00
2019-02-20T01:19:15.811Z,0.00
2019-02-20T01:20:15.778Z,0.00
2019-02-20T01:21:15.765Z,0.00
2019-02-20T01:22:15.753Z,0.00
2019-02-20T01:23:15.739Z,0.00
2019-02-20T01:24:15.771Z,0.00
2019-02-20T01:25:15.719Z,0.00
2019-02-20T01:26:15.707Z,0.00
2019-02-20T01:27:15.700Z,0.00
2019-02-20T01:28:15.686Z,0.00
2019-02-20T01:29:15.673Z,0.00
2019-02-20T01:30:15.681Z,0.00
2019-02-20T01:31:15.649Z,0.00
2019-02-20T01:32:15.645Z,0.00
2019-02-20T01:33:16.607Z,0.00
2019-02-20T01:34:15.618Z,0.00
2019-02-20T01:35:15.625Z,0.00
2019-02-20T01:36:15.601Z,0.00
2019-02-20T01:37:15.585Z,0.00
2019-02-20T01:38:15.582Z,0.00
2019-02-20T01:39:15.561Z,0.00
2019-02-20T01:40:15.589Z,0.00
2019-02-20T01:41:15.540Z,0.00
2019-02-20T01:42:15.532Z,0.00
2019-02-20T01:43:15.514Z,0.00
2019-02-20T01:44:15.508Z,0.00
2019-02-20T01:45:15.512Z,0.00
2019-02-20T01:46:15.501Z,0.00
2019-02-20T01:47:15.488Z,0.00
2019-02-20T01:48:15.460Z,0.00
2019-02-20T01:49:15.447Z,0.00
2019-02-20T01:50:15.435Z,0.00
2019-02-20T01:51:15.485Z,0.00
2019-02-20T01:52:15.414Z,0.00
2019-02-20T01:53:15.402Z,0.00
2019-02-20T01:54:15.410Z,0.00
2019-02-20T01:55:15.388Z,0.00
2019-02-20T01:56:15.392Z,0.00
2019-02-20T01:57:15.361Z,0.00
2019-02-20T01:58:15.348Z,0.00
2019-02-20T01:59:15.371Z,0.00
2019-02-20T02:00:15.325Z,0.00
2019-02-20T02:01:15.337Z,0.00
2019-02-20T02:02:15.304Z,0.00
2019-02-20T02:03:15.292Z,0.00
2019-02-20T02:04:15.284Z,0.00
2019-02-20T02:05:16.028Z,0.00
2019-02-20T02:06:15.334Z,0.00
2019-02-20T02:07:15.281Z,0.00
2019-02-20T02:08:15.240Z,0.00
2019-02-20T02:09:15.225Z,0.00
2019-02-20T02:10:15.211Z,0.00
2019-02-20T02:11:15.220Z,0.00
2019-02-20T02:12:15.201Z,0.00
2019-02-20T02:13:15.179Z,0.00
2019-02-20T02:14:15.167Z,0.00
2019-02-20T02:15:20.466Z,0.00
2019-02-20T02:16:16.165Z,0.00
2019-02-20T02:17:15.133Z,0.00
2019-02-20T02:18:15.128Z,0.00
2019-02-20T02:19:15.110Z,0.00
2019-02-20T02:20:15.101Z,0.00
2019-02-20T02:21:15.111Z,0.00
2019-02-20T02:22:15.081Z,0.00
2019-02-20T02:23:19.932Z,0.00
2019-02-20T02:24:16.056Z,0.00
2019-02-20T02:25:15.048Z,0.00
2019-02-20T02:26:15.057Z,0.00
2019-02-20T02:27:15.021Z,0.00
2019-02-20T02:28:15.011Z,0.00
2019-02-20T02:29:14.999Z,0.00
2019-02-20T02:30:14.999Z,0.00
2019-02-20T02:31:15.000Z,0.00
2019-02-20T02:32:14.966Z,0.00
2019-02-20T02:33:14.954Z,0.00
2019-02-20T02:34:14.944Z,0.00
2019-02-20T02:35:14.936Z,0.00
2019-02-20T02:36:15.022Z,0.00
2019-02-20T02:37:14.933Z,0.00
2019-02-20T02:38:14.897Z,0.00
2019-02-20T02:39:14.888Z,0.00
2019-02-20T02:40:14.873Z,0.00
2019-02-20T02:41:14.865Z,0.00
2019-02-20T02:42:14.853Z,0.00
2019-02-20T02:43:14.865Z,0.00
2019-02-20T02:44:14.830Z,0.00
2019-02-20T02:45:14.824Z,0.00
2019-02-20T02:46:14.813Z,0.00
2019-02-20T02:47:14.795Z,0.00
2019-02-20T02:48:14.800Z,0.00
2019-02-20T02:49:14.771Z,0.00
2019-02-20T02:50:14.764Z,0.00
2019-02-20T02:51:14.749Z,0.00
2019-02-20T02:52:14.753Z,0.00
2019-02-20T02:53:14.769Z,0.00
2019-02-20T02:54:14.717Z,0.00
2019-02-20T02:55:14.705Z,0.00
2019-02-20T02:56:14.699Z,0.00
2019-02-20T02:57:14.681Z,0.00
2019-02-20T02:58:14.674Z,0.00
2019-02-20T02:59:14.677Z,0.00
2019-02-20T03:00:14.653Z,0.00
2019-02-20T03:01:14.645Z,0.00
2019-02-20T03:02:14.626Z,0.00
2019-02-20T03:03:14.617Z,0.00
2019-02-20T03:04:14.704Z,0.00
2019-02-20T03:05:14.592Z,0.00
2019-02-20T03:06:14.579Z,0.00
2019-02-20T03:07:14.569Z,0.00
2019-02-20T03:08:14.559Z,0.00
2019-02-20T03:09:14.570Z,0.00
2019-02-20T03:10:14.538Z,0.00
2019-02-20T03:11:14.523Z,0.00
2019-02-20T03:12:14.512Z,0.00
2019-02-20T03:13:14.503Z,0.00
2019-02-20T03:14:14.496Z,0.00
2019-02-20T03:15:14.505Z,0.00
2019-02-20T03:16:14.468Z,0.00
2019-02-20T03:17:14.460Z,0.00
2019-02-20T03:18:14.447Z,0.00
2019-02-20T03:19:14.443Z,0.00
2019-02-20T03:20:14.446Z,0.00
2019-02-20T03:21:14.414Z,0.00
2019-02-20T03:22:14.404Z,0.00
2019-02-20T03:23:14.393Z,0.00
2019-02-20T03:24:14.388Z,0.00
2019-02-20T03:25:14.403Z,0.00
2019-02-20T03:26:14.353Z,0.00
2019-02-20T03:27:14.361Z,0.00
2019-02-20T03:28:14.340Z,0.00
2019-02-20T03:29:14.337Z,0.00
2019-02-20T03:30:14.330Z,0.00
2019-02-20T03:31:14.306Z,0.00
2019-02-20T03:32:14.306Z,0.00
2019-02-20T03:33:14.275Z,0.00
2019-02-20T03:34:14.269Z,0.00
2019-02-20T03:35:14.292Z,0.00
2019-02-20T03:36:14.240Z,0.00
2019-02-20T03:37:14.227Z,0.00
2019-02-20T03:38:14.218Z,0.00
2019-02-20T03:39:14.206Z,0.00
2019-02-20T03:40:14.195Z,0.00
2019-02-20T03:41:14.205Z,0.00
2019-02-20T03:42:14.173Z,0.00
2019-02-20T03:43:14.168Z,0.00
2019-02-20T03:44:14.149Z,0.00
2019-02-20T03:45:14.165Z,0.00
2019-02-20T03:46:14.127Z,0.00
2019-02-20T03:47:14.136Z,0.00
2019-02-20T03:48:14.108Z,0.00
2019-02-20T03:49:14.107Z,0.00
2019-02-20T03:50:14.101Z,0.00
2019-02-20T03:51:14.073Z,0.00
2019-02-20T03:52:14.059Z,0.00
2019-02-20T03:53:14.049Z,0.00
2019-02-20T03:54:14.040Z,0.00
2019-02-20T03:55:14.042Z,0.00
2019-02-20T03:56:14.013Z,0.00
2019-02-20T03:57:14.000Z,0.00
2019-02-20T03:58:13.989Z,0.00
2019-02-20T03:59:13.983Z,0.00
2019-02-20T04:00:13.991Z,0.00
2019-02-20T04:01:13.989Z,0.00
2019-02-20T04:02:13.951Z,0.00
2019-02-20T04:03:13.932Z,0.00
2019-02-20T04:04:13.921Z,0.00
2019-02-20T04:05:13.931Z,0.00
2019-02-20T04:06:13.898Z,0.00
2019-02-20T04:07:13.893Z,0.00
2019-02-20T04:08:13.873Z,0.00
2019-02-20T04:09:13.868Z,0.00
2019-02-20T04:10:13.885Z,0.00
2019-02-20T04:11:13.845Z,0.00
2019-02-20T04:12:13.837Z,0.00
2019-02-20T04:13:13.821Z,0.00
2019-02-20T04:14:13.808Z,0.00
2019-02-20T04:15:13.838Z,0.00
2019-02-20T04:16:13.785Z,0.00
2019-02-20T04:17:13.777Z,0.00
2019-02-20T04:18:13.761Z,0.00
2019-02-20T04:19:13.751Z,0.00
2019-02-20T04:20:13.772Z,0.00
2019-02-20T04:21:13.745Z,0.00
2019-02-20T04:22:13.715Z,0.00
2019-02-20T04:23:13.702Z,0.00
2019-02-20T04:24:13.692Z,0.00
2019-02-20T04:25:13.681Z,0.00
2019-02-20T04:26:13.695Z,0.00
2019-02-20T04:27:13.659Z,0.00
2019-02-20T04:28:13.646Z,0.00
2019-02-20T04:29:13.634Z,0.00
2019-02-20T04:30:13.631Z,0.00
2019-02-20T04:31:13.652Z,0.00
2019-02-20T04:32:13.601Z,0.00
2019-02-20T04:33:13.588Z,0.00
2019-02-20T04:34:13.579Z,0.00
2019-02-20T04:35:13.566Z,0.00
2019-02-20T04:36:13.555Z,0.00
2019-02-20T04:37:13.562Z,0.00
2019-02-20T04:38:13.535Z,0.00
2019-02-20T04:39:13.521Z,0.00
2019-02-20T04:40:13.511Z,0.00
2019-02-20T04:41:13.501Z,0.00
2019-02-20T04:42:13.509Z,0.00
2019-02-20T04:43:13.481Z,0.00
2019-02-20T04:44:13.467Z,0.00
2019-02-20T04:45:13.458Z,0.00
2019-02-20T04:46:13.533Z,0.00
2019-02-20T04:47:13.454Z,0.00
2019-02-20T04:48:13.420Z,0.00
2019-02-20T04:49:13.408Z,0.00
2019-02-20T04:50:13.399Z,0.00
2019-02-20T04:51:13.388Z,0.00
2019-02-20T04:52:13.383Z,0.00
2019-02-20T04:53:13.382Z,0.00
2019-02-20T04:54:13.932Z,0.00
2019-02-20T04:55:13.346Z,0.00
2019-02-20T04:56:13.330Z,0.00
2019-02-20T04:57:13.317Z,0.00
2019-02-20T04:58:13.332Z,0.00
2019-02-20T04:59:13.295Z,0.00
2019-02-20T05:00:13.283Z,0.00
2019-02-20T05:01:13.274Z,0.00
2019-02-20T05:02:13.269Z,0.00
2019-02-20T05:03:13.252Z,0.00
2019-02-20T05:04:13.257Z,0.00
2019-02-20T05:05:13.227Z,0.00
2019-02-20T05:06:13.217Z,0.00
2019-02-20T05:07:13.211Z,0.00
2019-02-20T05:08:13.203Z,0.00
2019-02-20T05:09:13.202Z,0.00
2019-02-20T05:10:13.168Z,0.00
2019-02-20T05:11:13.165Z,0.00
2019-02-20T05:12:13.147Z,0.00
2019-02-20T05:13:13.139Z,0.00
2019-02-20T05:14:13.148Z,0.00
2019-02-20T05:15:13.114Z,0.00
2019-02-20T05:16:13.107Z,0.00
2019-02-20T05:17:13.092Z,0.00
2019-02-20T05:18:13.090Z,0.00
2019-02-20T05:19:13.099Z,0.00
2019-02-20T05:20:13.063Z,0.00
2019-02-20T05:21:13.049Z,0.00
2019-02-20T05:22:13.037Z,0.00
2019-02-20T05:23:13.028Z,0.00
2019-02-20T05:24:23.755Z,0.00
2019-02-20T05:25:14.024Z,0.00
2019-02-20T05:26:12.991Z,0.00
2019-02-20T05:27:12.978Z,0.00
2019-02-20T05:28:12.977Z,0.00
2019-02-20T05:29:12.956Z,0.00
2019-02-20T05:30:12.968Z,0.00
2019-02-20T05:31:12.936Z,0.00
2019-02-20T05:32:12.921Z,0.00
2019-02-20T05:33:12.917Z,0.00
2019-02-20T05:34:12.902Z,0.00
2019-02-20T05:35:12.928Z,0.00
2019-02-20T05:36:12.876Z,0.00
2019-02-20T05:37:12.866Z,0.00
2019-02-20T05:38:12.869Z,0.00
2019-02-20T05:39:12.842Z,0.00
2019-02-20T05:40:12.831Z,0.00
2019-02-20T05:41:12.848Z,0.00
2019-02-20T05:42:12.808Z,0.00
2019-02-20T05:43:12.802Z,0.00
2019-02-20T05:44:12.795Z,0.00
2019-02-20T05:45:12.796Z,0.00
2019-02-20T05:46:12.764Z,0.00
2019-02-20T05:47:12.751Z,0.00
2019-02-20T05:48:12.739Z,0.00
2019-02-20T05:49:12.727Z,0.00
2019-02-20T05:50:12.744Z,0.00
2019-02-20T05:51:12.706Z,0.00
2019-02-20T05:52:12.701Z,0.00
2019-02-20T05:53:12.682Z,0.00
2019-02-20T05:54:12.670Z,0.00
2019-02-20T05:55:12.669Z,0.00
2019-02-20T05:56:12.671Z,0.00
2019-02-20T05:57:12.641Z,0.00
2019-02-20T05:58:12.635Z,0.00
2019-02-20T05:59:12.616Z,0.00
2019-02-20T06:00:12.619Z,0.00
2019-02-20T06:01:12.613Z,0.00
2019-02-20T06:02:12.583Z,0.00
2019-02-20T06:03:12.571Z,0.00
2019-02-20T06:04:12.559Z,0.00
2019-02-20T06:05:12.553Z,0.00
2019-02-20T06:06:12.557Z,0.00
2019-02-20T06:07:12.526Z,0.00
2019-02-20T06:08:12.518Z,0.00
2019-02-20T06:09:12.508Z,0.00
2019-02-20T06:10:12.494Z,0.00
2019-02-20T06:11:15.322Z,0.00
2019-02-20T06:12:12.471Z,0.00
2019-02-20T06:13:12.458Z,0.00
2019-02-20T06:14:12.446Z,0.00
2019-02-20T06:15:12.438Z,0.00
2019-02-20T06:16:12.445Z,0.00
2019-02-20T06:17:12.418Z,0.00
2019-02-20T06:18:12.404Z,0.00
2019-02-20T06:19:12.395Z,0.00
2019-02-20T06:20:12.384Z,0.00
2019-02-20T06:21:12.389Z,0.00
2019-02-20T06:22:12.358Z,0.00
2019-02-20T06:23:12.349Z,0.00
2019-02-20T06:24:12.345Z,0.00
2019-02-20T06:25:12.341Z,0.00
2019-02-20T06:26:12.362Z,0.00
2019-02-20T06:27:12.304Z,5.62
2019-02-20T06:28:12.295Z,5.62
2019-02-20T06:29:12.282Z,5.62
2019-02-20T06:30:12.270Z,5.62
2019-02-20T06:31:12.259Z,5.62
2019-02-20T06:32:12.263Z,5.62
2019-02-20T06:33:12.239Z,11.25
2019-02-20T06:34:12.262Z,11.25
2019-02-20T06:35:12.229Z,11.25
2019-02-20T06:36:12.203Z,11.25
2019-02-20T06:37:12.214Z,11.25
2019-02-20T06:38:12.193Z,16.88
2019-02-20T06:39:12.171Z,16.88
2019-02-20T06:40:12.157Z,16.88
2019-02-20T06:41:12.147Z,22.50
2019-02-20T06:42:12.158Z,22.50
2019-02-20T06:43:12.125Z,22.50
2019-02-20T06:44:12.127Z,28.12
2019-02-20T06:45:12.102Z,28.12
2019-02-20T06:46:12.093Z,33.75
2019-02-20T06:47:12.101Z,33.75
2019-02-20T06:48:12.070Z,39.38
2019-02-20T06:49:12.057Z,45.00
2019-02-20T06:50:12.044Z,45.00
2019-02-20T06:51:12.033Z,50.62
2019-02-20T06:52:12.026Z,50.62
2019-02-20T06:53:12.027Z,56.25
2019-02-20T06:54:12.001Z,61.88
2019-02-20T06:55:19.020Z,61.88
2019-02-20T06:56:11.981Z,67.50
2019-02-20T06:57:11.967Z,67.50
2019-02-20T06:58:11.971Z,73.12
2019-02-20T06:59:11.944Z,73.12
2019-02-20T07:00:11.933Z,73.12
2019-02-20T07:01:11.922Z,73.12
2019-02-20T07:02:11.911Z,78.75
2019-02-20T07:03:11.922Z,78.75
2019-02-20T07:04:11.892Z,78.75
2019-02-20T07:05:11.895Z,84.38
2019-02-20T07:06:11.869Z,90.00
2019-02-20T07:07:11.861Z,90.00
2019-02-20T07:08:11.887Z,90.00
2019-02-20T07:09:11.830Z,95.62
2019-02-20T07:10:11.822Z,95.62
2019-02-20T07:11:11.810Z,101.25
2019-02-20T07:12:11.801Z,95.62
2019-02-20T07:13:11.790Z,95.62
2019-02-20T07:14:11.796Z,95.62
2019-02-20T07:15:11.764Z,95.62
2019-02-20T07:16:11.753Z,95.62
2019-02-20T07:17:11.749Z,101.25
2019-02-20T07:18:11.728Z,106.88
2019-02-20T07:19:11.736Z,118.12
2019-02-20T07:20:11.708Z,123.75
2019-02-20T07:21:11.696Z,135.00
2019-02-20T07:22:11.684Z,135.00
2019-02-20T07:23:11.675Z,135.00
2019-02-20T07:24:11.706Z,135.00
2019-02-20T07:25:11.653Z,135.00
2019-02-20T07:26:11.639Z,135.00
2019-02-20T07:27:11.627Z,146.25
2019-02-20T07:28:11.620Z,151.88
2019-02-20T07:29:11.604Z,163.12
2019-02-20T07:30:11.610Z,174.38
2019-02-20T07:31:11.582Z,196.88
2019-02-20T07:32:11.567Z,202.50
2019-02-20T07:33:11.558Z,213.75
2019-02-20T07:34:11.548Z,219.38
2019-02-20T07:35:11.555Z,225.00
2019-02-20T07:36:11.625Z,241.88
2019-02-20T07:37:11.512Z,258.75
2019-02-20T07:38:11.500Z,275.62
2019-02-20T07:39:11.487Z,281.25
2019-02-20T07:40:11.498Z,286.88
2019-02-20T07:41:11.464Z,286.88
2019-02-20T07:42:11.452Z,286.88
2019-02-20T07:43:11.443Z,292.50
2019-02-20T07:44:11.428Z,292.50
2019-02-20T07:45:11.430Z,337.50
2019-02-20T07:46:11.426Z,326.25
2019-02-20T07:47:11.395Z,275.62
2019-02-20T07:48:11.383Z,281.25
2019-02-20T07:49:11.370Z,253.12
2019-02-20T07:50:11.360Z,236.25
2019-02-20T07:51:11.371Z,208.12
2019-02-20T07:52:11.338Z,241.88
2019-02-20T07:53:11.327Z,264.38
2019-02-20T07:54:11.314Z,247.50
2019-02-20T07:55:13.556Z,247.50
2019-02-20T07:56:11.317Z,253.12
2019-02-20T07:57:11.280Z,258.75
2019-02-20T07:58:11.270Z,264.38
2019-02-20T07:59:11.260Z,281.25
2019-02-20T08:00:11.255Z,292.50
2019-02-20T08:01:11.236Z,298.12
2019-02-20T08:02:11.245Z,320.62
2019-02-20T08:03:11.212Z,326.25
2019-02-20T08:04:11.198Z,354.38
2019-02-20T08:05:11.187Z,354.38
2019-02-20T08:06:11.186Z,360.00
2019-02-20T08:07:11.186Z,371.25
2019-02-20T08:08:11.162Z,382.50
2019-02-20T08:09:11.141Z,393.75
2019-02-20T08:10:11.129Z,393.75
2019-02-20T08:11:11.123Z,399.38
2019-02-20T08:12:11.124Z,405.00
2019-02-20T08:13:11.095Z,421.88
2019-02-20T08:14:11.088Z,450.00
2019-02-20T08:15:11.075Z,427.50
2019-02-20T08:16:11.062Z,410.62
2019-02-20T08:17:11.078Z,416.25
2019-02-20T08:18:11.038Z,444.38
2019-02-20T08:19:11.056Z,478.12
2019-02-20T08:20:11.016Z,495.00
2019-02-20T08:21:11.005Z,472.50
2019-02-20T08:22:10.994Z,466.88
2019-02-20T08:23:11.002Z,461.25
2019-02-20T08:24:10.976Z,472.50
2019-02-20T08:25:10.964Z,478.12
2019-02-20T08:26:10.948Z,500.62
2019-02-20T08:27:10.936Z,523.12
2019-02-20T08:28:10.943Z,540.00
2019-02-20T08:29:10.912Z,562.50
2019-02-20T08:30:10.902Z,590.62
2019-02-20T08:31:10.888Z,590.62
2019-02-20T08:32:10.879Z,601.88
2019-02-20T08:33:10.885Z,613.12
2019-02-20T08:34:10.855Z,618.75
2019-02-20T08:35:10.850Z,624.38
2019-02-20T08:36:10.831Z,607.50
2019-02-20T08:37:10.819Z,607.50
2019-02-20T08:38:10.847Z,607.50
2019-02-20T08:39:10.797Z,601.88
2019-02-20T08:40:10.789Z,624.38
2019-02-20T08:41:10.776Z,630.00
2019-02-20T08:42:10.762Z,635.62
2019-02-20T08:43:10.750Z,641.25
2019-02-20T08:44:10.758Z,646.88
2019-02-20T08:45:10.724Z,646.88
2019-02-20T08:46:10.715Z,641.25
2019-02-20T08:47:10.704Z,641.25
2019-02-20T08:48:10.697Z,635.62
2019-02-20T08:49:10.699Z,669.38
2019-02-20T08:50:10.669Z,635.62
2019-02-20T08:51:10.691Z,613.12
2019-02-20T08:52:10.644Z,601.88
2019-02-20T08:53:10.643Z,590.62
2019-02-20T08:54:10.646Z,585.00
2019-02-20T08:55:10.618Z,562.50
2019-02-20T08:56:10.643Z,534.38
2019-02-20T08:57:10.619Z,506.25
2019-02-20T08:58:10.574Z,472.50
2019-02-20T08:59:10.564Z,455.62
2019-02-20T09:00:10.569Z,438.75
2019-02-20T09:01:10.539Z,421.88
2019-02-20T09:02:10.530Z,405.00
2019-02-20T09:03:10.516Z,393.75
2019-02-20T09:04:10.503Z,382.50
2019-02-20T09:05:10.524Z,371.25
2019-02-20T09:06:10.478Z,376.88
2019-02-20T09:07:10.470Z,388.12
2019-02-20T09:08:10.480Z,410.62
2019-02-20T09:09:10.457Z,438.75
2019-02-20T09:10:10.459Z,455.62
2019-02-20T09:11:10.423Z,495.00
2019-02-20T09:12:10.411Z,534.38
2019-02-20T09:13:10.397Z,579.38
2019-02-20T09:14:10.385Z,652.50
2019-02-20T09:15:10.396Z,731.25
2019-02-20T09:16:10.365Z,855.00
2019-02-20T09:17:10.350Z,945.00
2019-02-20T09:18:10.344Z,995.62
2019-02-20T09:19:10.326Z,961.88
2019-02-20T09:20:10.333Z,922.50
2019-02-20T09:21:10.323Z,928.12
2019-02-20T09:22:10.293Z,911.25
2019-02-20T09:23:10.284Z,905.62
2019-02-20T09:24:10.271Z,871.88
2019-02-20T09:25:19.257Z,770.62
2019-02-20T09:26:11.262Z,748.12
2019-02-20T09:27:10.245Z,579.38
2019-02-20T09:28:10.232Z,866.25
2019-02-20T09:29:10.212Z,950.62
2019-02-20T09:30:10.225Z,1029.38
2019-02-20T09:31:10.189Z,1046.25
2019-02-20T09:32:10.177Z,1051.88
2019-02-20T09:33:10.167Z,1040.62
2019-02-20T09:34:10.160Z,1023.75
2019-02-20T09:35:10.148Z,1006.88
2019-02-20T09:36:10.154Z,990.00
2019-02-20T09:37:10.121Z,967.50
2019-02-20T09:38:10.598Z,933.75
2019-02-20T09:39:10.096Z,888.75
2019-02-20T09:40:10.100Z,894.38
2019-02-20T09:41:10.093Z,866.25
2019-02-20T09:42:10.061Z,849.38
2019-02-20T09:43:10.057Z,815.62
2019-02-20T09:44:10.041Z,821.25
2019-02-20T09:45:10.029Z,815.62
2019-02-20T09:46:10.037Z,804.38
2019-02-20T09:47:10.003Z,787.50
2019-02-20T09:48:09.994Z,770.62
2019-02-20T09:49:09.984Z,748.12
2019-02-20T09:50:09.975Z,731.25
2019-02-20T09:51:09.978Z,725.62
2019-02-20T09:52:09.949Z,725.62
2019-02-20T09:53:09.941Z,725.62
2019-02-20T09:54:09.928Z,720.00
2019-02-20T09:55:09.915Z,714.38
2019-02-20T09:56:09.923Z,720.00
2019-02-20T09:57:09.894Z,725.62
2019-02-20T09:58:09.882Z,748.12
2019-02-20T09:59:09.870Z,781.88
2019-02-20T10:00:09.864Z,804.38
2019-02-20T10:01:09.903Z,832.50
2019-02-20T10:02:09.840Z,838.12
2019-02-20T10:03:09.827Z,838.12
2019-02-20T10:04:09.815Z,838.12
2019-02-20T10:05:09.803Z,843.75
2019-02-20T10:06:09.794Z,843.75
2019-02-20T10:07:09.802Z,855.00
2019-02-20T10:08:09.769Z,877.50
2019-02-20T10:09:09.757Z,894.38
2019-02-20T10:10:09.745Z,911.25
2019-02-20T10:11:09.732Z,911.25
2019-02-20T10:12:09.743Z,900.00
2019-02-20T10:13:11.551Z,883.12
2019-02-20T10:14:09.697Z,877.50
2019-02-20T10:15:09.688Z,888.75
2019-02-20T10:16:09.676Z,860.62
2019-02-20T10:17:09.710Z,838.12
2019-02-20T10:18:09.654Z,849.38
2019-02-20T10:19:09.646Z,860.62
2019-02-20T10:20:09.630Z,866.25
2019-02-20T10:21:09.621Z,860.62
2019-02-20T10:22:09.607Z,883.12
2019-02-20T10:23:09.619Z,900.00
2019-02-20T10:24:09.587Z,933.75
2019-02-20T10:25:09.574Z,967.50
2019-02-20T10:26:09.563Z,995.62
2019-02-20T10:27:09.560Z,1029.38
2019-02-20T10:28:09.556Z,1018.12
2019-02-20T10:29:09.524Z,1164.38
2019-02-20T10:30:09.514Z,641.25
2019-02-20T10:31:09.504Z,1192.50
2019-02-20T10:32:09.497Z,1473.75
2019-02-20T10:33:09.505Z,1901.25
2019-02-20T10:34:11.192Z,1428.75
2019-02-20T10:35:09.457Z,1473.75
2019-02-20T10:36:09.442Z,1361.25
2019-02-20T10:37:09.434Z,1186.88
2019-02-20T10:38:09.438Z,1113.75
2019-02-20T10:39:09.413Z,1108.12
2019-02-20T10:40:09.399Z,1136.25
2019-02-20T10:41:09.385Z,1035.00
2019-02-20T10:42:09.373Z,1029.38
2019-02-20T10:43:09.393Z,1057.50
2019-02-20T10:44:09.351Z,1158.75
2019-02-20T10:45:09.339Z,1158.75
2019-02-20T10:46:09.328Z,1186.88
2019-02-20T10:47:09.321Z,1288.12
2019-02-20T10:48:09.310Z,1113.75
2019-02-20T10:49:09.313Z,1333.12
2019-02-20T10:50:09.282Z,1428.75
2019-02-20T10:51:09.273Z,1293.75
2019-02-20T10:52:09.262Z,1575.00
2019-02-20T10:53:09.249Z,1428.75
2019-02-20T10:54:09.258Z,1080.00
2019-02-20T10:55:09.231Z,1012.50
2019-02-20T10:56:09.819Z,978.75
2019-02-20T10:57:09.203Z,1068.75
2019-02-20T10:58:09.203Z,1153.12
2019-02-20T10:59:09.220Z,1108.12
2019-02-20T11:00:09.167Z,945.00
2019-02-20T11:01:09.157Z,877.50
2019-02-20T11:02:09.148Z,905.62
2019-02-20T11:03:09.134Z,1012.50
2019-02-20T11:04:09.121Z,967.50
2019-02-20T11:05:09.129Z,871.88
2019-02-20T11:06:09.100Z,916.88
2019-02-20T11:07:09.091Z,990.00
2019-02-20T11:08:09.077Z,1310.62
2019-02-20T11:09:09.065Z,1243.12
2019-02-20T11:10:09.073Z,1158.75
2019-02-20T11:11:09.045Z,1473.75
2019-02-20T11:12:09.033Z,1783.12
2019-02-20T11:13:09.029Z,1524.38
2019-02-20T11:14:09.008Z,1597.50
2019-02-20T11:15:09.029Z,1726.88
2019-02-20T11:16:08.984Z,1693.12
2019-02-20T11:17:08.997Z,1743.75
2019-02-20T11:18:08.964Z,1569.38
2019-02-20T11:19:08.971Z,1271.25
2019-02-20T11:20:08.960Z,1147.50
2019-02-20T11:21:08.927Z,860.62
2019-02-20T11:22:08.915Z,708.75
2019-02-20T11:23:08.905Z,691.88
2019-02-20T11:24:08.892Z,798.75
2019-02-20T11:25:08.883Z,843.75
2019-02-20T11:26:08.887Z,781.88
2019-02-20T11:27:08.859Z,742.50
2019-02-20T11:28:08.849Z,753.75
2019-02-20T11:29:08.835Z,838.12
2019-02-20T11:30:08.840Z,933.75
2019-02-20T11:31:08.830Z,1001.25
2019-02-20T11:32:08.800Z,1063.12
2019-02-20T11:33:08.793Z,1096.88
2019-02-20T11:34:08.790Z,1215.00
2019-02-20T11:35:08.768Z,1215.00
2019-02-20T11:36:08.776Z,1282.50
2019-02-20T11:37:08.746Z,1265.62
2019-02-20T11:38:08.734Z,1209.38
2019-02-20T11:39:08.722Z,1192.50
2019-02-20T11:40:08.712Z,1130.62
2019-02-20T11:41:08.715Z,1074.38
2019-02-20T11:42:08.687Z,978.75
2019-02-20T11:43:08.675Z,933.75
2019-02-20T11:44:08.666Z,922.50
2019-02-20T11:45:08.651Z,939.38
2019-02-20T11:46:08.660Z,939.38
2019-02-20T11:47:08.632Z,928.12
2019-02-20T11:48:08.619Z,905.62
2019-02-20T11:49:08.607Z,916.88
2019-02-20T11:50:08.613Z,928.12
2019-02-20T11:51:08.613Z,911.25
2019-02-20T11:52:08.575Z,883.12
2019-02-20T11:53:08.561Z,894.38
2019-02-20T11:54:08.552Z,967.50
2019-02-20T11:55:08.544Z,984.38
2019-02-20T11:56:08.532Z,1023.75
2019-02-20T11:57:08.536Z,1040.62
2019-02-20T11:58:08.516Z,1074.38
2019-02-20T11:59:08.496Z,1141.88
2019-02-20T12:00:08.482Z,1186.88
2019-02-20T12:01:08.469Z,1051.88
2019-02-20T12:02:08.487Z,1170.00
2019-02-20T12:03:08.446Z,1186.88
2019-02-20T12:04:08.452Z,1096.88
2019-02-20T12:05:08.429Z,961.88
2019-02-20T12:06:08.414Z,1040.62
2019-02-20T12:07:08.422Z,1473.75
2019-02-20T12:08:08.419Z,1518.75
2019-02-20T12:09:08.378Z,1085.62
2019-02-20T12:10:08.368Z,1125.00
2019-02-20T12:11:08.360Z,922.50
2019-02-20T12:12:09.488Z,860.62
2019-02-20T12:13:08.337Z,877.50
2019-02-20T12:14:08.324Z,1276.88
2019-02-20T12:15:08.311Z,984.38
2019-02-20T12:16:08.337Z,860.62
2019-02-20T12:17:08.287Z,978.75
2019-02-20T12:18:15.435Z,860.62
2019-02-20T12:19:09.264Z,888.75
2019-02-20T12:20:08.257Z,1147.50
2019-02-20T12:21:08.243Z,1130.62
2019-02-20T12:22:08.230Z,1192.50
2019-02-20T12:23:08.242Z,883.12
2019-02-20T12:24:08.210Z,950.62
2019-02-20T12:25:08.196Z,832.50
2019-02-20T12:26:08.218Z,1091.25
2019-02-20T12:27:08.173Z,1125.00
2019-02-20T12:28:08.186Z,933.75
2019-02-20T12:29:08.151Z,838.12
2019-02-20T12:30:08.159Z,815.62
2019-02-20T12:31:08.129Z,849.38
2019-02-20T12:32:08.116Z,753.75
2019-02-20T12:33:08.106Z,720.00
2019-02-20T12:34:08.111Z,748.12
2019-02-20T12:35:08.082Z,753.75
2019-02-20T12:36:08.070Z,697.50
2019-02-20T12:37:08.059Z,720.00
2019-02-20T12:38:08.047Z,776.25
2019-02-20T12:39:08.055Z,860.62
2019-02-20T12:40:08.025Z,877.50
2019-02-20T12:41:08.012Z,939.38
2019-02-20T12:42:08.000Z,1136.25
2019-02-20T12:43:07.995Z,1186.88
2019-02-20T12:44:07.999Z,1473.75
2019-02-20T12:45:07.968Z,1338.75
2019-02-20T12:46:07.953Z,1080.00
2019-02-20T12:47:07.946Z,1051.88
2019-02-20T12:48:07.933Z,1063.12
2019-02-20T12:49:07.939Z,871.88
2019-02-20T12:50:07.911Z,826.88
2019-02-20T12:51:07.900Z,871.88